< Typhoon 196908 1969 Season Typhoon 196910 >
Typhoon 196909 (CORA)
General InformationTrack Information on Google Maps || Disaster Info.ResourceGoogle EarthGE AnimationAtom FeedGeoJSON
Detalied Best Track (Time Zone = UTC)
Year Month Day Hour Lat. Long. Pressure (hPa) Wind (kt) Class Image Chart
1969 8 12 18 9.5 150.5 1009 0 2 -- Chart
1969 8 13 00 9.7 149.6 1009 0 2 -- Chart
1969 8 13 06 9.8 148.4 1007 0 2 -- Chart
1969 8 13 12 9.9 147.3 1007 0 2 -- Chart
1969 8 13 18 10.0 145.9 1006 0 2 -- Chart
1969 8 14 00 10.1 144.6 1004 0 2 -- Chart
1969 8 14 06 10.4 143.7 1002 0 2 -- Chart
1969 8 14 12 10.7 142.9 1000 0 2 -- Chart
1969 8 14 18 11.1 142.3 1000 0 2 -- Chart
1969 8 15 00 11.6 141.5 998 0 2 -- Chart
1969 8 15 06 12.3 140.7 996 0 2 -- Chart
1969 8 15 12 12.9 139.9 995 0 2 -- Chart
1969 8 15 18 13.4 139.1 992 0 9 -- Chart
1969 8 16 00 14.0 138.2 990 0 9 -- Chart
1969 8 16 06 14.5 137.4 990 0 9 -- Chart
1969 8 16 12 15.2 136.2 990 0 9 -- Chart
1969 8 16 18 16.0 135.0 990 0 9 -- Chart
1969 8 17 00 16.8 134.0 988 0 9 -- Chart
1969 8 17 06 17.7 133.2 988 0 9 -- Chart
1969 8 17 12 18.5 132.3 988 0 9 -- Chart
1969 8 17 18 19.0 131.2 980 0 9 -- Chart
1969 8 18 00 20.3 130.1 975 0 9 -- Chart
1969 8 18 06 21.2 129.6 970 0 9 -- Chart
1969 8 18 12 21.9 129.0 970 0 9 -- Chart
1969 8 18 18 22.8 128.4 965 0 9 -- Chart
1969 8 19 00 23.7 127.9 960 0 9 -- Chart
1969 8 19 06 24.3 127.7 945 0 9 -- Chart
1969 8 19 12 25.4 127.3 935 0 9 -- Chart
1969 8 19 18 25.9 127.3 945 0 9 -- Chart
1969 8 20 00 26.6 127.1 950 0 9 -- Chart
1969 8 20 06 27.2 127.0 950 0 9 -- Chart
1969 8 20 12 28.0 127.1 955 0 9 -- Chart
1969 8 20 18 28.5 127.4 955 0 9 -- Chart
1969 8 21 00 29.0 127.9 960 0 9 -- Chart
1969 8 21 06 29.7 128.2 960 0 9 -- Chart
1969 8 21 12 30.4 128.5 960 0 9 -- Chart
1969 8 21 18 30.9 128.9 960 0 9 -- Chart
1969 8 22 00 31.5 129.9 960 0 9 -- Chart
1969 8 22 06 32.2 131.8 965 0 9 -- Chart
1969 8 22 12 33.1 133.3 970 0 9 -- Chart
1969 8 22 18 34.1 135.4 980 0 9 -- Chart
1969 8 23 00 35.4 137.8 986 0 9 -- Chart
1969 8 23 06 36.6 140.3 986 0 9 -- Chart
1969 8 23 12 39.7 141.1 984 0 6 -- Chart
1969 8 23 18 41.4 142.6 982 0 6 -- Chart
1969 8 24 00 43.2 143.8 986 0 6 -- Chart
1969 8 24 06 44.7 144.0 988 0 6 -- Chart
1969 8 24 12 45.0 143.6 998 0 6 -- Chart
1969 8 24 18 45.7 142.6 996 0 6 -- Chart
1969 8 25 00 46.0 141.9 1000 0 6 -- Chart
1969 8 25 06 46.1 143.1 1002 0 6 -- Chart
1969 8 25 12 46.2 144.1 1004 0 6 -- Chart
1969 8 25 18 46.3 145.0 1006 0 6 -- Chart
Japan Meteorological Agency Best Track Data | Correction Date : 1989-06-01
< Typhoon 196908 1969 Season Typhoon 196910 >

Help